Terminal Aerodrome Forecast
Issued by NWS Pocatello, ID

Home | Current Version | Previous Version | Text Only | Print | Product List | Glossary On
Versions: 1 2 3 4 5 6 7 8 9 10 11 12 13 14 15 16 17 18 19
000
FTUS45 KPIH 190521
TAFBYI
TAF
KBYI 190521Z 1906/2006 VRB06KT 6SM -RASN BR SCT012 OVC030
      WS010/20025KT
     FM191200 18011KT 2SM -RASN BR SCT008 BKN020
     FM191800 22009KT 5SM -SHRASN BR SCT010 BKN025
     FM192100 26009KT P6SM BKN030=

USA.gov is the U.S. government's official web portal to all federal, state and local government web resources and services.